createdAt,value
2017-11-23T00:01:14.576Z,81.88
2017-11-23T00:03:42.148Z,81.84
2017-11-23T00:06:09.725Z,82.24
2017-11-23T00:08:37.337Z,82.37
2017-11-23T00:11:04.923Z,82.43
2017-11-23T00:13:32.558Z,82.98
2017-11-23T00:16:00.150Z,82.87
2017-11-23T00:18:27.741Z,83.13
2017-11-23T00:20:55.362Z,82.93
2017-11-23T00:23:22.976Z,83.00
2017-11-23T00:25:50.602Z,82.87
2017-11-23T00:28:18.193Z,82.82
2017-11-23T00:30:46.046Z,83.00
2017-11-23T00:33:13.661Z,82.90
2017-11-23T00:35:41.254Z,82.86
2017-11-23T00:38:08.873Z,83.11
2017-11-23T00:40:36.776Z,82.64
2017-11-23T00:43:04.366Z,82.79
2017-11-23T00:45:31.981Z,83.04
2017-11-23T00:47:59.575Z,83.33
2017-11-23T00:50:27.218Z,83.32
2017-11-23T00:52:54.799Z,83.28
2017-11-23T00:55:22.395Z,83.19
2017-11-23T00:57:50.017Z,83.19
2017-11-23T01:00:17.636Z,83.13
2017-11-23T01:02:45.258Z,82.98
2017-11-23T01:05:12.849Z,83.11
2017-11-23T01:07:40.441Z,82.85
2017-11-23T01:10:08.093Z,82.88
2017-11-23T01:12:35.720Z,83.01
2017-11-23T01:15:03.351Z,83.35
2017-11-23T01:17:30.940Z,83.25
2017-11-23T01:19:58.528Z,83.12
2017-11-23T01:22:31.637Z,83.17
2017-11-23T01:24:59.225Z,83.32
2017-11-23T01:27:26.856Z,83.15
2017-11-23T01:29:54.439Z,83.10
2017-11-23T01:32:22.033Z,83.08
2017-11-23T01:34:49.970Z,82.82
2017-11-23T01:37:17.544Z,82.45
2017-11-23T01:39:45.169Z,82.88
2017-11-23T01:42:12.754Z,83.17
2017-11-23T01:44:40.351Z,83.17
2017-11-23T01:47:07.962Z,82.98
2017-11-23T01:49:35.585Z,83.33
2017-11-23T01:52:03.220Z,83.33
2017-11-23T01:54:31.033Z,83.32
2017-11-23T01:56:58.941Z,83.33
2017-11-23T01:59:26.546Z,82.95
2017-11-23T02:01:54.207Z,83.05
2017-11-23T02:04:21.825Z,82.54
2017-11-23T02:06:49.435Z,82.42
2017-11-23T02:09:17.043Z,82.27
2017-11-23T02:11:44.655Z,82.03
2017-11-23T02:14:12.240Z,82.52
2017-11-23T02:16:39.858Z,82.50
2017-11-23T02:19:07.802Z,82.53
2017-11-23T02:21:35.381Z,82.18
2017-11-23T02:24:02.998Z,82.06
2017-11-23T02:26:30.605Z,82.22
2017-11-23T02:28:58.234Z,82.14
2017-11-23T02:31:25.831Z,81.87
2017-11-23T02:33:53.428Z,81.67
2017-11-23T02:36:21.054Z,81.59
2017-11-23T02:38:48.647Z,81.32
2017-11-23T02:41:16.267Z,81.56
2017-11-23T02:43:44.128Z,81.21
2017-11-23T02:46:11.743Z,81.40
2017-11-23T02:48:39.353Z,81.48
2017-11-23T02:51:06.945Z,81.28
2017-11-23T02:53:34.575Z,81.10
2017-11-23T02:56:02.187Z,81.20
2017-11-23T02:58:30.109Z,81.16
2017-11-23T03:00:57.726Z,81.21
2017-11-23T03:03:25.313Z,81.39
2017-11-23T03:05:52.950Z,80.73
2017-11-23T03:08:20.569Z,81.06
2017-11-23T03:10:48.324Z,80.49
2017-11-23T03:13:15.946Z,80.54
2017-11-23T03:15:43.531Z,80.21
2017-11-23T03:18:11.167Z,80.26
2017-11-23T03:20:38.755Z,80.00
2017-11-23T03:23:06.342Z,80.22
2017-11-23T03:25:33.955Z,79.89
2017-11-23T03:28:01.601Z,79.86
2017-11-23T03:30:29.231Z,79.89
2017-11-23T03:32:57.082Z,79.76
2017-11-23T03:35:24.663Z,79.78
2017-11-23T03:37:52.290Z,79.71
2017-11-23T03:40:19.873Z,80.01
2017-11-23T03:42:47.494Z,80.17
2017-11-23T03:45:15.077Z,80.25
2017-11-23T03:47:42.675Z,80.35
2017-11-23T03:50:10.294Z,79.97
2017-11-23T03:52:38.188Z,80.02
2017-11-23T03:55:05.810Z,80.14
2017-11-23T03:57:33.393Z,79.86
2017-11-23T04:00:00.977Z,79.98
2017-11-23T04:02:28.597Z,79.82
2017-11-23T04:04:56.509Z,79.75
2017-11-23T04:07:24.140Z,79.46
2017-11-23T04:09:51.829Z,79.89
2017-11-23T04:12:19.470Z,80.02
2017-11-23T04:14:47.076Z,79.74
2017-11-23T04:17:14.691Z,79.93
2017-11-23T04:19:42.577Z,79.79
2017-11-23T04:22:10.447Z,79.70
2017-11-23T04:24:38.319Z,79.60
2017-11-23T04:27:05.968Z,79.38
2017-11-23T04:29:33.545Z,79.42
2017-11-23T04:32:01.137Z,79.59
2017-11-23T04:34:28.766Z,79.51
2017-11-23T04:36:56.361Z,79.61
2017-11-23T04:39:23.940Z,79.25
2017-11-23T04:41:51.556Z,78.88
2017-11-23T04:44:19.155Z,78.73
2017-11-23T04:46:47.078Z,78.55
2017-11-23T04:49:14.705Z,78.07
2017-11-23T04:51:42.293Z,78.05
2017-11-23T04:54:09.880Z,77.68
2017-11-23T04:56:37.493Z,77.42
2017-11-23T04:59:05.073Z,77.33
2017-11-23T05:01:32.697Z,76.74
2017-11-23T05:04:00.275Z,76.86
2017-11-23T05:06:27.878Z,76.62
2017-11-23T05:08:55.496Z,76.57
2017-11-23T05:11:23.407Z,76.48
2017-11-23T05:13:51.035Z,76.13
2017-11-23T05:16:18.630Z,76.12
2017-11-23T05:18:46.212Z,75.94
2017-11-23T05:21:13.822Z,75.74
2017-11-23T05:23:41.719Z,75.86
2017-11-23T05:26:09.346Z,75.57
2017-11-23T05:28:36.933Z,75.65
2017-11-23T05:31:04.918Z,75.26
2017-11-23T05:33:32.580Z,75.03
2017-11-23T05:36:00.165Z,75.08
2017-11-23T05:38:27.778Z,75.24
2017-11-23T05:40:55.426Z,75.45
2017-11-23T05:43:23.014Z,75.20
2017-11-23T05:45:50.621Z,75.11
2017-11-23T05:48:18.560Z,74.67
2017-11-23T05:50:46.529Z,74.83
2017-11-23T05:53:14.126Z,74.81
2017-11-23T05:55:41.737Z,75.03
2017-11-23T05:58:09.466Z,74.79
2017-11-23T06:00:37.061Z,74.71
2017-11-23T06:03:05.047Z,74.90
2017-11-23T06:05:32.730Z,74.92
2017-11-23T06:08:00.345Z,74.90
2017-11-23T06:10:27.962Z,75.01
2017-11-23T06:12:55.909Z,74.98
2017-11-23T06:15:23.606Z,74.94
2017-11-23T06:17:51.213Z,74.97
2017-11-23T06:20:18.821Z,74.78
2017-11-23T06:22:46.434Z,74.69
2017-11-23T06:25:14.018Z,74.85
2017-11-23T06:27:41.665Z,75.14
2017-11-23T06:30:09.257Z,74.97
2017-11-23T06:32:36.922Z,74.70
2017-11-23T06:35:04.541Z,74.53
2017-11-23T06:37:32.130Z,74.63
2017-11-23T06:39:59.762Z,74.55
2017-11-23T06:42:27.356Z,74.33
2017-11-23T06:44:54.965Z,74.79
2017-11-23T06:47:22.680Z,74.36
2017-11-23T06:49:50.294Z,74.39
2017-11-23T06:52:17.954Z,74.46
2017-11-23T06:54:45.555Z,74.07
2017-11-23T06:57:13.156Z,74.21
2017-11-23T06:59:40.778Z,74.04
2017-11-23T07:02:08.365Z,73.92
2017-11-23T07:04:35.992Z,73.52
2017-11-23T07:07:03.638Z,73.46
2017-11-23T07:09:31.245Z,73.17
2017-11-23T07:11:58.890Z,73.14
2017-11-23T07:14:26.522Z,73.02
2017-11-23T07:16:54.141Z,72.84
2017-11-23T07:19:21.714Z,72.49
2017-11-23T07:21:49.649Z,72.33
2017-11-23T07:24:17.278Z,71.61
2017-11-23T07:26:49.119Z,71.72
2017-11-23T07:29:16.781Z,71.33
2017-11-23T07:31:44.366Z,71.25
2017-11-23T07:34:11.973Z,70.89
2017-11-23T07:36:39.930Z,70.77
2017-11-23T07:39:07.543Z,70.62
2017-11-23T07:41:35.207Z,70.38
2017-11-23T07:44:04.559Z,70.64
2017-11-23T07:46:32.442Z,70.54
2017-11-23T07:49:00.103Z,69.90
2017-11-23T07:51:27.704Z,69.74
2017-11-23T07:53:55.382Z,70.02
2017-11-23T07:56:23.128Z,69.49
2017-11-23T07:58:50.805Z,69.41
2017-11-23T08:01:18.425Z,68.94
2017-11-23T08:03:46.018Z,69.27
2017-11-23T08:06:13.760Z,69.02
2017-11-23T08:08:41.448Z,68.67
2017-11-23T08:11:10.378Z,68.53
2017-11-23T08:13:38.066Z,68.77
2017-11-23T08:16:06.823Z,68.70
2017-11-23T08:18:36.330Z,68.32
2017-11-23T08:21:04.322Z,67.94
2017-11-23T08:23:33.960Z,67.81
2017-11-23T08:26:01.832Z,67.53
2017-11-23T08:28:30.891Z,67.70
2017-11-23T08:30:59.356Z,67.61
2017-11-23T08:33:30.995Z,67.67
2017-11-23T08:36:03.989Z,67.42
2017-11-23T08:38:31.605Z,67.30
2017-11-23T08:41:03.569Z,67.43
2017-11-23T08:43:31.199Z,67.26
2017-11-23T08:45:58.837Z,67.00
2017-11-23T08:48:26.657Z,67.10
2017-11-23T08:50:54.297Z,67.02
2017-11-23T08:53:21.926Z,66.61
2017-11-23T08:55:50.372Z,66.54
2017-11-23T08:58:18.117Z,66.49
2017-11-23T09:00:45.776Z,66.20
2017-11-23T09:03:13.403Z,66.03
2017-11-23T09:05:44.484Z,66.51
2017-11-23T09:08:12.548Z,65.77
2017-11-23T09:10:40.955Z,65.79
2017-11-23T09:13:09.772Z,65.21
2017-11-23T09:15:38.594Z,65.19
2017-11-23T09:18:06.213Z,64.90
2017-11-23T09:20:33.816Z,64.86
2017-11-23T09:23:01.418Z,64.56
2017-11-23T09:25:29.053Z,64.90
2017-11-23T09:27:56.634Z,65.04
2017-11-23T09:30:24.597Z,64.67
2017-11-23T09:32:52.215Z,64.87
2017-11-23T09:35:19.933Z,64.80
2017-11-23T09:37:47.552Z,64.78
2017-11-23T09:40:15.451Z,64.92
2017-11-23T09:42:43.274Z,64.53
2017-11-23T09:45:10.897Z,64.55
2017-11-23T09:47:38.498Z,64.37
2017-11-23T09:50:06.115Z,64.27
2017-11-23T09:52:33.741Z,64.12
2017-11-23T09:55:01.398Z,63.77
2017-11-23T09:57:29.034Z,63.76
2017-11-23T09:59:56.631Z,63.94
2017-11-23T10:02:24.298Z,64.08
2017-11-23T10:04:51.892Z,64.38
2017-11-23T10:07:19.537Z,64.56
2017-11-23T10:09:47.202Z,64.67
2017-11-23T10:12:14.798Z,64.61
2017-11-23T10:14:45.163Z,64.47
2017-11-23T10:17:13.253Z,64.41
2017-11-23T10:19:40.938Z,63.89
2017-11-23T10:22:08.527Z,63.80
2017-11-23T10:24:36.155Z,63.66
2017-11-23T10:27:03.822Z,63.45
2017-11-23T10:29:31.409Z,63.35
2017-11-23T10:31:59.045Z,63.13
2017-11-23T10:34:26.645Z,62.85
2017-11-23T10:36:54.245Z,62.97
2017-11-23T10:39:21.881Z,63.06
2017-11-23T10:41:49.485Z,62.89
2017-11-23T10:44:17.239Z,63.11
2017-11-23T10:46:44.872Z,62.96
2017-11-23T10:49:12.501Z,62.74
2017-11-23T10:51:40.134Z,63.14
2017-11-23T10:54:07.751Z,62.56
2017-11-23T10:56:35.390Z,62.70
2017-11-23T10:59:03.010Z,62.90
2017-11-23T11:01:30.627Z,62.92
2017-11-23T11:03:58.250Z,62.90
2017-11-23T11:06:25.918Z,63.10
2017-11-23T11:08:53.540Z,62.94
2017-11-23T11:11:21.185Z,62.93
2017-11-23T11:13:48.776Z,63.34
2017-11-23T11:16:16.402Z,63.51
2017-11-23T11:18:44.048Z,63.20
2017-11-23T11:21:11.721Z,63.48
2017-11-23T11:23:39.345Z,63.49
2017-11-23T11:26:07.174Z,63.45
2017-11-23T11:28:34.793Z,63.53
2017-11-23T11:31:02.381Z,63.45
2017-11-23T11:33:30.016Z,63.49
2017-11-23T11:35:57.603Z,63.62
2017-11-23T11:38:25.521Z,63.54
2017-11-23T11:40:53.158Z,63.59
2017-11-23T11:43:21.057Z,63.48
2017-11-23T11:45:48.682Z,63.35
2017-11-23T11:48:16.278Z,63.30
2017-11-23T11:50:43.862Z,63.27
2017-11-23T11:53:11.521Z,63.40
2017-11-23T11:55:39.118Z,63.79
2017-11-23T11:58:06.746Z,63.17
2017-11-23T12:00:34.595Z,63.08
2017-11-23T12:03:02.178Z,62.79
2017-11-23T12:05:29.787Z,62.97
2017-11-23T12:07:57.405Z,62.59
2017-11-23T12:10:25.366Z,62.61
2017-11-23T12:12:52.957Z,62.67
2017-11-23T12:15:32.450Z,62.55
2017-11-23T12:21:13.858Z,62.69
2017-11-23T12:23:45.230Z,62.89
2017-11-23T12:26:12.853Z,63.01
2017-11-23T12:28:52.252Z,62.95
2017-11-23T12:31:21.432Z,62.94
2017-11-23T12:33:49.085Z,63.04
2017-11-23T12:36:17.043Z,62.83
2017-11-23T12:38:44.635Z,62.94
2017-11-23T12:41:12.470Z,62.77
2017-11-23T12:43:40.085Z,62.59
2017-11-23T12:46:07.685Z,62.70
2017-11-23T12:48:35.566Z,62.60
2017-11-23T12:51:03.181Z,62.84
2017-11-23T12:53:30.801Z,62.53
2017-11-23T12:55:58.384Z,62.74
2017-11-23T12:58:26.317Z,62.89
2017-11-23T13:01:06.629Z,62.67
2017-11-23T13:03:35.193Z,62.89
2017-11-23T13:06:03.396Z,62.62
2017-11-23T13:08:31.070Z,62.64
2017-11-23T13:10:58.676Z,62.48
2017-11-23T13:13:26.269Z,62.96
2017-11-23T13:15:53.887Z,63.17
2017-11-23T13:18:21.749Z,63.16
2017-11-23T13:20:49.393Z,63.05
2017-11-23T13:23:17.015Z,63.32
2017-11-23T13:25:44.597Z,63.07
2017-11-23T13:28:12.513Z,62.70
2017-11-23T13:30:40.375Z,62.36
2017-11-23T13:33:07.977Z,62.53
2017-11-23T13:35:35.608Z,62.76
2017-11-23T13:38:03.199Z,62.83
2017-11-23T13:40:30.786Z,62.71
2017-11-23T13:42:58.433Z,62.60
2017-11-23T13:45:26.024Z,62.52
2017-11-23T13:47:53.612Z,62.41
2017-11-23T13:50:21.586Z,62.24
2017-11-23T13:52:49.447Z,61.77
2017-11-23T13:55:17.085Z,61.98
2017-11-23T13:57:44.715Z,61.90
2017-11-23T14:00:12.297Z,61.91
2017-11-23T14:02:39.929Z,61.88
2017-11-23T14:05:07.557Z,61.53
2017-11-23T14:07:35.189Z,62.10
2017-11-23T14:10:02.774Z,62.02
2017-11-23T14:12:30.369Z,62.02
2017-11-23T14:14:58.005Z,61.83
2017-11-23T14:17:25.874Z,61.78
2017-11-23T14:19:53.587Z,61.84
2017-11-23T14:22:21.167Z,61.96
2017-11-23T14:24:48.764Z,61.59
2017-11-23T14:27:16.388Z,61.51
2017-11-23T14:29:44.014Z,61.20
2017-11-23T14:32:11.663Z,60.92
2017-11-23T14:34:39.254Z,61.11
2017-11-23T14:37:06.844Z,60.93
2017-11-23T14:39:34.450Z,61.22
2017-11-23T14:42:02.078Z,61.02
2017-11-23T14:44:29.762Z,61.00
2017-11-23T14:46:57.351Z,61.28
2017-11-23T14:49:24.974Z,61.09
2017-11-23T14:51:52.845Z,61.19
2017-11-23T14:54:20.438Z,61.01
2017-11-23T14:56:48.059Z,60.96
2017-11-23T14:59:15.937Z,60.88
2017-11-23T15:01:43.598Z,61.28
2017-11-23T15:04:11.268Z,61.32
2017-11-23T15:06:38.850Z,61.32
2017-11-23T15:09:06.499Z,61.60
2017-11-23T15:11:34.090Z,61.76
2017-11-23T15:14:02.018Z,61.94
2017-11-23T15:16:29.598Z,61.81
2017-11-23T15:18:57.193Z,62.29
2017-11-23T15:21:24.819Z,62.69
2017-11-23T15:23:52.393Z,62.56
2017-11-23T15:26:20.031Z,62.78
2017-11-23T15:28:47.897Z,62.76
2017-11-23T15:31:15.500Z,62.75
2017-11-23T15:33:47.688Z,63.03
2017-11-23T15:36:15.317Z,63.03
2017-11-23T15:38:42.948Z,63.15
2017-11-23T15:41:10.536Z,63.30
2017-11-23T15:43:38.121Z,63.27
2017-11-23T15:46:06.041Z,63.43
2017-11-23T15:48:33.910Z,63.71
2017-11-23T15:51:01.565Z,63.70
2017-11-23T15:53:29.154Z,63.85
2017-11-23T15:55:56.729Z,63.68
2017-11-23T15:58:24.663Z,63.91
2017-11-23T16:00:52.245Z,63.99
2017-11-23T16:03:19.864Z,63.96
2017-11-23T16:05:47.459Z,64.02
2017-11-23T16:08:15.042Z,63.83
2017-11-23T16:10:42.652Z,63.92
2017-11-23T16:13:10.285Z,64.04
2017-11-23T16:15:37.920Z,64.13
2017-11-23T16:18:05.563Z,64.36
2017-11-23T16:20:33.335Z,64.36
2017-11-23T16:23:00.952Z,64.59
2017-11-23T16:25:28.866Z,64.52
2017-11-23T16:27:56.506Z,64.54
2017-11-23T16:30:24.109Z,64.69
2017-11-23T16:32:51.692Z,64.51
2017-11-23T16:35:19.610Z,64.67
2017-11-23T16:37:50.626Z,64.52
2017-11-23T16:40:32.123Z,64.79
2017-11-23T16:42:59.729Z,64.94
2017-11-23T16:45:32.849Z,64.94
2017-11-23T16:48:05.945Z,65.00
2017-11-23T16:50:49.314Z,64.95
2017-11-23T16:53:22.814Z,64.74
2017-11-23T16:58:55.823Z,65.06
2017-11-23T17:01:29.053Z,64.90
2017-11-23T17:03:57.459Z,64.86
2017-11-23T17:09:42.492Z,65.17
2017-11-23T17:12:15.755Z,65.09
2017-11-23T17:14:48.953Z,65.15
2017-11-23T17:20:17.466Z,65.31
2017-11-23T17:22:45.083Z,65.42
2017-11-23T17:25:12.713Z,65.33
2017-11-23T17:27:40.369Z,65.49
2017-11-23T17:30:07.965Z,65.44
2017-11-23T17:32:35.600Z,65.47
2017-11-23T17:35:03.234Z,65.29
2017-11-23T17:37:31.705Z,65.32
2017-11-23T17:39:59.356Z,65.28
2017-11-23T17:42:27.005Z,65.29
2017-11-23T17:44:54.605Z,65.36
2017-11-23T17:47:22.237Z,65.27
2017-11-23T17:49:49.888Z,65.50
2017-11-23T17:52:17.581Z,65.50
2017-11-23T17:54:45.482Z,65.61
2017-11-23T17:57:13.196Z,65.70
2017-11-23T17:59:40.818Z,65.70
2017-11-23T18:02:08.403Z,65.64
2017-11-23T18:04:36.029Z,65.69
2017-11-23T18:07:03.656Z,65.81
2017-11-23T18:09:31.258Z,65.97
2017-11-23T18:11:58.875Z,65.85
2017-11-23T18:14:26.459Z,66.04
2017-11-23T18:16:54.103Z,66.07
2017-11-23T18:19:21.698Z,66.16
2017-11-23T18:21:49.293Z,66.00
2017-11-23T18:24:17.236Z,65.99
2017-11-23T18:26:44.821Z,66.05
2017-11-23T18:29:12.681Z,65.81
2017-11-23T18:31:40.265Z,65.92
2017-11-23T18:34:08.196Z,65.69
2017-11-23T18:36:35.821Z,65.86
2017-11-23T18:39:03.433Z,65.98
2017-11-23T18:41:31.142Z,65.85
2017-11-23T18:43:58.731Z,65.82
2017-11-23T18:46:26.361Z,66.03
2017-11-23T18:48:54.286Z,66.21
2017-11-23T18:51:21.889Z,66.35
2017-11-23T18:53:49.520Z,66.41
2017-11-23T18:56:17.125Z,66.53
2017-11-23T18:58:44.718Z,66.60
2017-11-23T19:01:12.369Z,66.82
2017-11-23T19:03:39.962Z,66.79
2017-11-23T19:06:07.589Z,66.91
2017-11-23T19:08:35.198Z,67.10
2017-11-23T19:11:02.792Z,67.06
2017-11-23T19:13:30.429Z,67.01
2017-11-23T19:15:58.021Z,67.19
2017-11-23T19:18:25.657Z,67.41
2017-11-23T19:20:53.250Z,67.44
2017-11-23T19:23:20.852Z,67.72
2017-11-23T19:25:48.478Z,67.79
2017-11-23T19:28:16.383Z,67.88
2017-11-23T19:30:44.016Z,67.92
2017-11-23T19:33:11.602Z,68.02
2017-11-23T19:35:39.466Z,67.98
2017-11-23T19:38:07.069Z,68.08
2017-11-23T19:40:34.678Z,68.12
2017-11-23T19:43:02.344Z,68.29
2017-11-23T19:45:30.227Z,68.22
2017-11-23T19:47:57.831Z,68.17
2017-11-23T19:50:25.522Z,68.21
2017-11-23T19:52:53.136Z,68.34
2017-11-23T19:55:20.766Z,68.40
2017-11-23T19:57:48.369Z,68.32
2017-11-23T20:00:15.961Z,68.24
2017-11-23T20:02:43.580Z,68.13
2017-11-23T20:05:11.175Z,68.27
2017-11-23T20:07:38.809Z,68.22
2017-11-23T20:10:06.409Z,68.37
2017-11-23T20:12:34.007Z,68.45
2017-11-23T20:15:01.625Z,68.24
2017-11-23T20:17:29.227Z,68.25
2017-11-23T20:19:56.877Z,67.95
2017-11-23T20:22:24.559Z,67.91
2017-11-23T20:24:52.157Z,67.83
2017-11-23T20:27:19.800Z,67.91
2017-11-23T20:29:47.676Z,67.98
2017-11-23T20:32:15.319Z,67.93
2017-11-23T20:34:42.959Z,67.93
2017-11-23T20:37:10.639Z,67.87
2017-11-23T20:39:38.271Z,67.81
2017-11-23T20:42:05.930Z,67.82
2017-11-23T20:44:33.670Z,67.78
2017-11-23T20:47:01.267Z,67.81
2017-11-23T20:49:29.160Z,67.82
2017-11-23T20:51:56.770Z,68.04
2017-11-23T20:54:24.365Z,68.11
2017-11-23T20:56:52.004Z,67.82
2017-11-23T20:59:19.591Z,67.84
2017-11-23T21:01:47.188Z,67.69
2017-11-23T21:04:14.841Z,67.76
2017-11-23T21:06:42.489Z,67.99
2017-11-23T21:09:10.113Z,67.79
2017-11-23T21:11:42.266Z,67.96
2017-11-23T21:14:09.881Z,68.15
2017-11-23T21:16:37.847Z,68.15
2017-11-23T21:19:05.446Z,68.22
2017-11-23T21:21:33.074Z,68.11
2017-11-23T21:24:00.665Z,67.89
2017-11-23T21:26:28.290Z,67.97
2017-11-23T21:28:55.899Z,68.07
2017-11-23T21:31:23.481Z,68.05
2017-11-23T21:33:51.211Z,68.09
2017-11-23T21:36:18.875Z,68.20
2017-11-23T21:38:46.524Z,68.09
2017-11-23T21:41:14.122Z,68.09
2017-11-23T21:43:41.722Z,67.80
2017-11-23T21:46:09.342Z,67.80
2017-11-23T21:48:36.942Z,67.96
2017-11-23T21:51:04.582Z,67.93
2017-11-23T21:53:33.447Z,67.98
2017-11-23T21:56:01.057Z,67.87
2017-11-23T21:58:28.688Z,67.54
2017-11-23T22:00:56.409Z,67.91
2017-11-23T22:03:24.074Z,67.85
2017-11-23T22:05:51.657Z,67.99
2017-11-23T22:08:19.252Z,68.06
2017-11-23T22:10:46.963Z,68.21
2017-11-23T22:13:14.561Z,68.04
2017-11-23T22:15:42.583Z,68.05
2017-11-23T22:18:10.184Z,68.12
2017-11-23T22:20:37.783Z,68.36
2017-11-23T22:23:05.461Z,68.52
2017-11-23T22:25:33.096Z,68.66
2017-11-23T22:28:01.225Z,68.64
2017-11-23T22:30:28.817Z,68.62
2017-11-23T22:32:56.433Z,68.66
2017-11-23T22:35:24.045Z,68.80
2017-11-23T22:37:51.741Z,68.86
2017-11-23T22:40:19.367Z,68.83
2017-11-23T22:42:46.986Z,68.86
2017-11-23T22:45:14.580Z,68.91
2017-11-23T22:47:42.508Z,69.07
2017-11-23T22:50:10.093Z,69.13
2017-11-23T22:52:37.724Z,69.35
2017-11-23T22:55:05.316Z,69.45
2017-11-23T22:57:32.919Z,69.24
2017-11-23T23:00:00.542Z,69.48
2017-11-23T23:02:28.395Z,69.68
